sensor_id;sensor_type;location;lat;lon;timestamp;P1;durP1;ratioP1;P2;durP2;ratioP2
49858;SDS011;35756;52.346;13.622;2023-08-07T00:00:28;4.55;;;2.47;;
49858;SDS011;35756;52.346;13.622;2023-08-07T00:02:54;4.25;;;2.58;;
49858;SDS011;35756;52.346;13.622;2023-08-07T00:05:19;5.43;;;2.72;;
49858;SDS011;35756;52.346;13.622;2023-08-07T00:07:44;4.90;;;2.58;;
49858;SDS011;35756;52.346;13.622;2023-08-07T00:10:10;4.38;;;2.33;;
49858;SDS011;35756;52.346;13.622;2023-08-07T00:12:35;8.15;;;3.20;;
49858;SDS011;35756;52.346;13.622;2023-08-07T00:15:01;3.88;;;2.65;;
49858;SDS011;35756;52.346;13.622;2023-08-07T00:17:27;4.72;;;2.45;;
49858;SDS011;35756;52.346;13.622;2023-08-07T00:19:52;4.68;;;2.60;;
49858;SDS011;35756;52.346;13.622;2023-08-07T00:22:17;4.60;;;2.65;;
49858;SDS011;35756;52.346;13.622;2023-08-07T00:24:43;4.20;;;2.55;;
49858;SDS011;35756;52.346;13.622;2023-08-07T00:27:08;4.03;;;2.65;;
49858;SDS011;35756;52.346;13.622;2023-08-07T00:29:35;3.80;;;2.50;;
49858;SDS011;35756;52.346;13.622;2023-08-07T00:32:01;3.53;;;2.22;;
49858;SDS011;35756;52.346;13.622;2023-08-07T00:34:27;4.70;;;2.80;;
49858;SDS011;35756;52.346;13.622;2023-08-07T00:36:52;4.68;;;2.60;;
49858;SDS011;35756;52.346;13.622;2023-08-07T00:39:18;4.32;;;2.70;;
49858;SDS011;35756;52.346;13.622;2023-08-07T00:41:43;4.25;;;2.42;;
49858;SDS011;35756;52.346;13.622;2023-08-07T00:44:08;4.90;;;2.75;;
49858;SDS011;35756;52.346;13.622;2023-08-07T00:46:33;4.88;;;2.45;;
49858;SDS011;35756;52.346;13.622;2023-08-07T00:48:59;4.07;;;2.45;;
49858;SDS011;35756;52.346;13.622;2023-08-07T00:51:24;5.00;;;2.70;;
49858;SDS011;35756;52.346;13.622;2023-08-07T00:53:49;3.67;;;2.40;;
49858;SDS011;35756;52.346;13.622;2023-08-07T00:56:15;3.85;;;2.28;;
49858;SDS011;35756;52.346;13.622;2023-08-07T00:58:40;4.20;;;2.53;;
49858;SDS011;35756;52.346;13.622;2023-08-07T01:01:06;3.80;;;2.50;;
49858;SDS011;35756;52.346;13.622;2023-08-07T01:03:32;6.15;;;3.03;;
49858;SDS011;35756;52.346;13.622;2023-08-07T01:05:57;4.68;;;2.65;;
49858;SDS011;35756;52.346;13.622;2023-08-07T01:08:23;4.10;;;2.60;;
49858;SDS011;35756;52.346;13.622;2023-08-07T01:11:06;5.20;;;2.50;;
49858;SDS011;35756;52.346;13.622;2023-08-07T01:13:48;4.40;;;2.70;;
49858;SDS011;35756;52.346;13.622;2023-08-07T01:16:40;5.28;;;2.88;;
49858;SDS011;35756;52.346;13.622;2023-08-07T01:19:09;3.72;;;2.47;;
49858;SDS011;35756;52.346;13.622;2023-08-07T01:21:45;5.38;;;2.42;;
49858;SDS011;35756;52.346;13.622;2023-08-07T01:24:13;5.03;;;2.67;;
49858;SDS011;35756;52.346;13.622;2023-08-07T01:26:38;4.40;;;2.63;;
49858;SDS011;35756;52.346;13.622;2023-08-07T01:29:11;5.68;;;2.80;;
49858;SDS011;35756;52.346;13.622;2023-08-07T01:31:39;7.93;;;3.17;;
49858;SDS011;35756;52.346;13.622;2023-08-07T01:34:05;4.85;;;2.90;;
49858;SDS011;35756;52.346;13.622;2023-08-07T01:36:33;4.53;;;2.90;;
49858;SDS011;35756;52.346;13.622;2023-08-07T01:38:59;4.10;;;2.53;;
49858;SDS011;35756;52.346;13.622;2023-08-07T01:41:24;5.65;;;2.85;;
49858;SDS011;35756;52.346;13.622;2023-08-07T01:43:50;4.05;;;2.53;;
49858;SDS011;35756;52.346;13.622;2023-08-07T01:46:16;5.80;;;3.03;;
49858;SDS011;35756;52.346;13.622;2023-08-07T01:48:41;5.38;;;2.70;;
49858;SDS011;35756;52.346;13.622;2023-08-07T01:51:06;9.38;;;3.30;;
49858;SDS011;35756;52.346;13.622;2023-08-07T01:53:32;8.15;;;3.22;;
49858;SDS011;35756;52.346;13.622;2023-08-07T01:55:57;7.65;;;3.05;;
49858;SDS011;35756;52.346;13.622;2023-08-07T01:58:22;4.38;;;2.95;;
49858;SDS011;35756;52.346;13.622;2023-08-07T02:00:48;7.13;;;3.13;;
49858;SDS011;35756;52.346;13.622;2023-08-07T02:03:13;5.28;;;2.80;;
49858;SDS011;35756;52.346;13.622;2023-08-07T02:05:38;5.68;;;2.78;;
49858;SDS011;35756;52.346;13.622;2023-08-07T02:08:03;7.18;;;3.28;;
49858;SDS011;35756;52.346;13.622;2023-08-07T02:10:29;7.30;;;3.40;;
49858;SDS011;35756;52.346;13.622;2023-08-07T02:12:54;4.93;;;2.92;;
49858;SDS011;35756;52.346;13.622;2023-08-07T02:15:22;6.63;;;3.28;;
49858;SDS011;35756;52.346;13.622;2023-08-07T02:17:47;5.32;;;3.25;;
49858;SDS011;35756;52.346;13.622;2023-08-07T02:20:12;5.03;;;3.33;;
49858;SDS011;35756;52.346;13.622;2023-08-07T02:22:37;5.40;;;2.90;;
49858;SDS011;35756;52.346;13.622;2023-08-07T02:25:03;5.28;;;2.90;;
49858;SDS011;35756;52.346;13.622;2023-08-07T02:27:28;4.30;;;2.85;;
49858;SDS011;35756;52.346;13.622;2023-08-07T02:29:53;5.18;;;3.30;;
49858;SDS011;35756;52.346;13.622;2023-08-07T02:32:19;5.22;;;3.20;;
49858;SDS011;35756;52.346;13.622;2023-08-07T02:34:44;5.53;;;3.13;;
49858;SDS011;35756;52.346;13.622;2023-08-07T02:37:09;5.32;;;3.15;;
49858;SDS011;35756;52.346;13.622;2023-08-07T02:39:35;8.95;;;3.67;;
49858;SDS011;35756;52.346;13.622;2023-08-07T02:42:00;5.88;;;3.45;;
49858;SDS011;35756;52.346;13.622;2023-08-07T02:44:25;7.57;;;3.70;;
49858;SDS011;35756;52.346;13.622;2023-08-07T02:46:51;4.85;;;3.17;;
49858;SDS011;35756;52.346;13.622;2023-08-07T02:49:16;5.45;;;3.53;;
49858;SDS011;35756;52.346;13.622;2023-08-07T02:51:41;5.78;;;3.53;;
49858;SDS011;35756;52.346;13.622;2023-08-07T02:54:06;6.22;;;3.58;;
49858;SDS011;35756;52.346;13.622;2023-08-07T02:56:32;6.43;;;3.33;;
49858;SDS011;35756;52.346;13.622;2023-08-07T02:58:57;5.75;;;3.90;;
49858;SDS011;35756;52.346;13.622;2023-08-07T03:01:24;6.35;;;4.00;;
49858;SDS011;35756;52.346;13.622;2023-08-07T03:03:49;6.40;;;3.80;;
49858;SDS011;35756;52.346;13.622;2023-08-07T03:06:14;6.32;;;4.13;;
49858;SDS011;35756;52.346;13.622;2023-08-07T03:08:39;5.75;;;3.35;;
49858;SDS011;35756;52.346;13.622;2023-08-07T03:11:05;5.82;;;3.88;;
49858;SDS011;35756;52.346;13.622;2023-08-07T03:13:30;5.93;;;3.83;;
49858;SDS011;35756;52.346;13.622;2023-08-07T03:15:59;5.80;;;3.72;;
49858;SDS011;35756;52.346;13.622;2023-08-07T03:18:25;5.28;;;3.55;;
49858;SDS011;35756;52.346;13.622;2023-08-07T03:20:50;5.38;;;3.58;;
49858;SDS011;35756;52.346;13.622;2023-08-07T03:23:15;6.65;;;4.00;;
49858;SDS011;35756;52.346;13.622;2023-08-07T03:25:41;9.13;;;4.28;;
49858;SDS011;35756;52.346;13.622;2023-08-07T03:28:06;7.97;;;3.85;;
49858;SDS011;35756;52.346;13.622;2023-08-07T03:30:31;5.97;;;3.75;;
49858;SDS011;35756;52.346;13.622;2023-08-07T03:32:56;7.18;;;4.05;;
49858;SDS011;35756;52.346;13.622;2023-08-07T03:35:22;9.93;;;4.80;;
49858;SDS011;35756;52.346;13.622;2023-08-07T03:37:47;7.97;;;4.00;;
49858;SDS011;35756;52.346;13.622;2023-08-07T03:40:12;7.50;;;3.55;;
49858;SDS011;35756;52.346;13.622;2023-08-07T03:42:37;6.25;;;4.35;;
49858;SDS011;35756;52.346;13.622;2023-08-07T03:45:03;6.70;;;3.97;;
49858;SDS011;35756;52.346;13.622;2023-08-07T03:47:28;9.02;;;4.20;;
49858;SDS011;35756;52.346;13.622;2023-08-07T03:49:53;8.73;;;4.35;;
49858;SDS011;35756;52.346;13.622;2023-08-07T03:52:19;8.05;;;3.92;;
49858;SDS011;35756;52.346;13.622;2023-08-07T03:54:44;5.53;;;3.97;;
49858;SDS011;35756;52.346;13.622;2023-08-07T03:57:09;6.47;;;4.10;;
49858;SDS011;35756;52.346;13.622;2023-08-07T03:59:35;7.03;;;4.70;;
49858;SDS011;35756;52.346;13.622;2023-08-07T04:02:01;6.57;;;3.60;;
49858;SDS011;35756;52.346;13.622;2023-08-07T04:04:26;8.20;;;4.45;;
49858;SDS011;35756;52.346;13.622;2023-08-07T04:06:51;6.97;;;4.63;;
49858;SDS011;35756;52.346;13.622;2023-08-07T04:09:17;8.88;;;4.18;;
49858;SDS011;35756;52.346;13.622;2023-08-07T04:11:42;7.65;;;4.20;;
49858;SDS011;35756;52.346;13.622;2023-08-07T04:14:07;6.18;;;4.18;;
49858;SDS011;35756;52.346;13.622;2023-08-07T04:16:32;5.88;;;4.15;;
49858;SDS011;35756;52.346;13.622;2023-08-07T04:18:58;6.15;;;4.10;;
49858;SDS011;35756;52.346;13.622;2023-08-07T04:21:23;7.78;;;5.07;;
49858;SDS011;35756;52.346;13.622;2023-08-07T04:23:48;8.25;;;4.05;;
49858;SDS011;35756;52.346;13.622;2023-08-07T04:26:14;8.70;;;4.10;;
49858;SDS011;35756;52.346;13.622;2023-08-07T04:28:39;6.95;;;4.35;;
49858;SDS011;35756;52.346;13.622;2023-08-07T04:31:04;9.05;;;4.93;;
49858;SDS011;35756;52.346;13.622;2023-08-07T04:33:30;5.88;;;3.78;;
49858;SDS011;35756;52.346;13.622;2023-08-07T04:35:55;6.53;;;4.00;;
49858;SDS011;35756;52.346;13.622;2023-08-07T04:38:20;6.57;;;4.20;;
49858;SDS011;35756;52.346;13.622;2023-08-07T04:40:46;8.00;;;3.92;;
49858;SDS011;35756;52.346;13.622;2023-08-07T04:43:12;5.78;;;3.75;;
49858;SDS011;35756;52.346;13.622;2023-08-07T04:45:38;5.65;;;3.67;;
49858;SDS011;35756;52.346;13.622;2023-08-07T04:48:04;6.60;;;3.78;;
49858;SDS011;35756;52.346;13.622;2023-08-07T04:50:29;5.53;;;3.78;;
49858;SDS011;35756;52.346;13.622;2023-08-07T04:52:55;6.82;;;3.92;;
49858;SDS011;35756;52.346;13.622;2023-08-07T04:55:20;5.90;;;3.45;;
49858;SDS011;35756;52.346;13.622;2023-08-07T04:57:45;10.70;;;4.20;;
49858;SDS011;35756;52.346;13.622;2023-08-07T05:00:11;8.32;;;3.72;;
49858;SDS011;35756;52.346;13.622;2023-08-07T05:02:37;6.25;;;3.55;;
49858;SDS011;35756;52.346;13.622;2023-08-07T05:05:02;7.38;;;3.85;;
49858;SDS011;35756;52.346;13.622;2023-08-07T05:07:27;5.57;;;3.35;;
49858;SDS011;35756;52.346;13.622;2023-08-07T05:09:53;7.28;;;3.95;;
49858;SDS011;35756;52.346;13.622;2023-08-07T05:12:18;6.82;;;3.42;;
49858;SDS011;35756;52.346;13.622;2023-08-07T05:14:43;7.38;;;3.85;;
49858;SDS011;35756;52.346;13.622;2023-08-07T05:17:09;7.38;;;3.55;;
49858;SDS011;35756;52.346;13.622;2023-08-07T05:19:34;5.78;;;3.40;;
49858;SDS011;35756;52.346;13.622;2023-08-07T05:21:59;6.95;;;3.10;;
49858;SDS011;35756;52.346;13.622;2023-08-07T05:24:24;5.53;;;3.08;;
49858;SDS011;35756;52.346;13.622;2023-08-07T05:26:50;5.43;;;3.20;;
49858;SDS011;35756;52.346;13.622;2023-08-07T05:29:15;5.05;;;3.22;;
49858;SDS011;35756;52.346;13.622;2023-08-07T05:31:40;5.53;;;3.40;;
49858;SDS011;35756;52.346;13.622;2023-08-07T05:34:06;5.60;;;2.97;;
49858;SDS011;35756;52.346;13.622;2023-08-07T05:36:31;6.78;;;3.03;;
49858;SDS011;35756;52.346;13.622;2023-08-07T05:38:57;5.97;;;3.63;;
49858;SDS011;35756;52.346;13.622;2023-08-07T05:41:23;4.72;;;3.20;;
49858;SDS011;35756;52.346;13.622;2023-08-07T05:43:48;5.28;;;3.08;;
49858;SDS011;35756;52.346;13.622;2023-08-07T05:46:13;5.18;;;3.83;;
49858;SDS011;35756;52.346;13.622;2023-08-07T05:48:39;4.38;;;2.83;;
49858;SDS011;35756;52.346;13.622;2023-08-07T05:51:04;5.35;;;2.70;;
49858;SDS011;35756;52.346;13.622;2023-08-07T05:53:29;5.82;;;3.08;;
49858;SDS011;35756;52.346;13.622;2023-08-07T05:55:55;3.40;;;2.58;;
49858;SDS011;35756;52.346;13.622;2023-08-07T05:58:20;4.47;;;2.80;;
49858;SDS011;35756;52.346;13.622;2023-08-07T06:00:45;3.35;;;2.30;;
49858;SDS011;35756;52.346;13.622;2023-08-07T06:03:11;3.60;;;2.28;;
49858;SDS011;35756;52.346;13.622;2023-08-07T06:05:36;3.45;;;2.40;;
49858;SDS011;35756;52.346;13.622;2023-08-07T06:08:01;3.67;;;2.30;;
49858;SDS011;35756;52.346;13.622;2023-08-07T06:10:27;5.93;;;2.88;;
49858;SDS011;35756;52.346;13.622;2023-08-07T06:12:52;4.32;;;2.92;;
49858;SDS011;35756;52.346;13.622;2023-08-07T06:15:17;4.43;;;2.60;;
49858;SDS011;35756;52.346;13.622;2023-08-07T06:17:43;5.35;;;2.20;;
49858;SDS011;35756;52.346;13.622;2023-08-07T06:20:08;3.80;;;2.00;;
49858;SDS011;35756;52.346;13.622;2023-08-07T06:22:34;3.70;;;2.20;;
49858;SDS011;35756;52.346;13.622;2023-08-07T06:25:00;3.22;;;2.20;;
49858;SDS011;35756;52.346;13.622;2023-08-07T06:27:25;3.95;;;2.08;;
49858;SDS011;35756;52.346;13.622;2023-08-07T06:29:50;5.22;;;2.15;;
49858;SDS011;35756;52.346;13.622;2023-08-07T06:32:16;4.47;;;2.22;;
49858;SDS011;35756;52.346;13.622;2023-08-07T06:34:43;4.05;;;2.47;;
49858;SDS011;35756;52.346;13.622;2023-08-07T06:37:08;2.33;;;1.80;;
49858;SDS011;35756;52.346;13.622;2023-08-07T06:39:33;6.82;;;2.28;;
49858;SDS011;35756;52.346;13.622;2023-08-07T06:41:58;2.88;;;2.13;;
49858;SDS011;35756;52.346;13.622;2023-08-07T06:44:25;4.35;;;2.30;;
49858;SDS011;35756;52.346;13.622;2023-08-07T06:46:50;3.20;;;2.20;;
49858;SDS011;35756;52.346;13.622;2023-08-07T06:49:16;4.10;;;1.85;;
49858;SDS011;35756;52.346;13.622;2023-08-07T06:51:41;3.60;;;2.50;;
49858;SDS011;35756;52.346;13.622;2023-08-07T06:54:06;4.22;;;2.20;;
49858;SDS011;35756;52.346;13.622;2023-08-07T06:56:32;4.28;;;2.38;;
49858;SDS011;35756;52.346;13.622;2023-08-07T06:58:57;4.40;;;2.20;;
49858;SDS011;35756;52.346;13.622;2023-08-07T07:01:23;3.22;;;1.92;;
49858;SDS011;35756;52.346;13.622;2023-08-07T07:03:48;4.20;;;2.00;;
49858;SDS011;35756;52.346;13.622;2023-08-07T07:06:17;2.95;;;2.13;;
49858;SDS011;35756;52.346;13.622;2023-08-07T07:08:43;5.80;;;2.10;;
49858;SDS011;35756;52.346;13.622;2023-08-07T07:11:08;3.28;;;1.95;;
49858;SDS011;35756;52.346;13.622;2023-08-07T07:13:33;4.47;;;2.20;;
49858;SDS011;35756;52.346;13.622;2023-08-07T07:15:59;3.05;;;1.90;;
49858;SDS011;35756;52.346;13.622;2023-08-07T07:18:24;3.45;;;2.10;;
49858;SDS011;35756;52.346;13.622;2023-08-07T07:20:56;4.90;;;1.90;;
49858;SDS011;35756;52.346;13.622;2023-08-07T07:23:25;2.65;;;1.98;;
49858;SDS011;35756;52.346;13.622;2023-08-07T07:25:50;4.10;;;2.00;;
49858;SDS011;35756;52.346;13.622;2023-08-07T07:28:15;2.90;;;1.83;;
49858;SDS011;35756;52.346;13.622;2023-08-07T07:30:41;3.25;;;1.90;;
49858;SDS011;35756;52.346;13.622;2023-08-07T07:33:06;2.97;;;1.92;;
49858;SDS011;35756;52.346;13.622;2023-08-07T07:35:31;2.83;;;2.00;;
49858;SDS011;35756;52.346;13.622;2023-08-07T07:38:01;2.38;;;1.90;;
49858;SDS011;35756;52.346;13.622;2023-08-07T07:40:26;2.40;;;1.70;;
49858;SDS011;35756;52.346;13.622;2023-08-07T07:42:51;2.80;;;1.70;;
49858;SDS011;35756;52.346;13.622;2023-08-07T07:45:16;3.42;;;1.70;;
49858;SDS011;35756;52.346;13.622;2023-08-07T07:47:42;2.65;;;1.70;;
49858;SDS011;35756;52.346;13.622;2023-08-07T07:50:07;5.18;;;2.10;;
49858;SDS011;35756;52.346;13.622;2023-08-07T07:52:33;3.75;;;2.08;;
49858;SDS011;35756;52.346;13.622;2023-08-07T07:54:59;2.38;;;1.80;;
49858;SDS011;35756;52.346;13.622;2023-08-07T07:57:24;3.70;;;1.65;;
49858;SDS011;35756;52.346;13.622;2023-08-07T07:59:49;2.03;;;1.77;;
49858;SDS011;35756;52.346;13.622;2023-08-07T08:02:15;2.03;;;1.52;;
49858;SDS011;35756;52.346;13.622;2023-08-07T08:04:43;3.22;;;1.73;;
49858;SDS011;35756;52.346;13.622;2023-08-07T08:07:08;4.10;;;1.92;;
49858;SDS011;35756;52.346;13.622;2023-08-07T08:09:33;1.90;;;1.63;;
49858;SDS011;35756;52.346;13.622;2023-08-07T08:11:59;3.60;;;1.90;;
49858;SDS011;35756;52.346;13.622;2023-08-07T08:14:24;5.25;;;2.00;;
49858;SDS011;35756;52.346;13.622;2023-08-07T08:16:49;1.80;;;1.52;;
49858;SDS011;35756;52.346;13.622;2023-08-07T08:19:16;2.85;;;1.50;;
49858;SDS011;35756;52.346;13.622;2023-08-07T08:21:41;3.28;;;1.73;;
49858;SDS011;35756;52.346;13.622;2023-08-07T08:24:07;3.03;;;2.25;;
49858;SDS011;35756;52.346;13.622;2023-08-07T08:26:32;2.58;;;1.75;;
49858;SDS011;35756;52.346;13.622;2023-08-07T08:28:57;3.40;;;1.73;;
49858;SDS011;35756;52.346;13.622;2023-08-07T08:31:22;2.10;;;1.50;;
49858;SDS011;35756;52.346;13.622;2023-08-07T08:33:49;4.47;;;1.88;;
49858;SDS011;35756;52.346;13.622;2023-08-07T08:36:14;2.70;;;1.80;;
49858;SDS011;35756;52.346;13.622;2023-08-07T08:38:39;3.08;;;1.98;;
49858;SDS011;35756;52.346;13.622;2023-08-07T08:41:04;2.70;;;1.85;;
49858;SDS011;35756;52.346;13.622;2023-08-07T08:43:34;3.08;;;1.95;;
49858;SDS011;35756;52.346;13.622;2023-08-07T08:46:00;2.65;;;1.80;;
49858;SDS011;35756;52.346;13.622;2023-08-07T08:48:26;4.20;;;2.05;;
49858;SDS011;35756;52.346;13.622;2023-08-07T08:50:53;3.97;;;2.08;;
49858;SDS011;35756;52.346;13.622;2023-08-07T08:53:18;3.53;;;1.88;;
49858;SDS011;35756;52.346;13.622;2023-08-07T08:55:45;2.88;;;1.88;;
49858;SDS011;35756;52.346;13.622;2023-08-07T08:58:13;4.18;;;2.50;;
49858;SDS011;35756;52.346;13.622;2023-08-07T09:00:39;2.45;;;2.00;;
49858;SDS011;35756;52.346;13.622;2023-08-07T09:03:04;2.75;;;1.92;;
49858;SDS011;35756;52.346;13.622;2023-08-07T09:05:30;2.55;;;1.80;;
49858;SDS011;35756;52.346;13.622;2023-08-07T09:07:56;2.65;;;1.73;;
49858;SDS011;35756;52.346;13.622;2023-08-07T09:10:21;3.53;;;2.20;;
49858;SDS011;35756;52.346;13.622;2023-08-07T09:12:53;7.15;;;3.40;;
49858;SDS011;35756;52.346;13.622;2023-08-07T09:17:57;3.50;;;2.15;;
49858;SDS011;35756;52.346;13.622;2023-08-07T09:20:23;2.88;;;2.10;;
49858;SDS011;35756;52.346;13.622;2023-08-07T09:22:49;3.70;;;2.45;;
49858;SDS011;35756;52.346;13.622;2023-08-07T09:25:15;4.40;;;2.08;;
49858;SDS011;35756;52.346;13.622;2023-08-07T09:27:51;3.38;;;2.08;;
49858;SDS011;35756;52.346;13.622;2023-08-07T09:30:17;3.10;;;2.00;;
49858;SDS011;35756;52.346;13.622;2023-08-07T09:32:42;2.90;;;1.90;;
49858;SDS011;35756;52.346;13.622;2023-08-07T09:35:08;3.42;;;2.40;;
49858;SDS011;35756;52.346;13.622;2023-08-07T09:37:35;4.38;;;2.08;;
49858;SDS011;35756;52.346;13.622;2023-08-07T09:40:01;2.33;;;1.73;;
49858;SDS011;35756;52.346;13.622;2023-08-07T09:42:28;3.08;;;2.15;;
49858;SDS011;35756;52.346;13.622;2023-08-07T09:44:55;2.42;;;1.83;;
49858;SDS011;35756;52.346;13.622;2023-08-07T09:47:20;3.15;;;1.98;;
49858;SDS011;35756;52.346;13.622;2023-08-07T09:49:46;3.00;;;1.98;;
49858;SDS011;35756;52.346;13.622;2023-08-07T09:52:12;2.25;;;1.90;;
49858;SDS011;35756;52.346;13.622;2023-08-07T09:54:39;4.35;;;2.15;;
49858;SDS011;35756;52.346;13.622;2023-08-07T09:57:05;2.58;;;1.70;;
49858;SDS011;35756;52.346;13.622;2023-08-07T09:59:32;4.03;;;2.17;;
49858;SDS011;35756;52.346;13.622;2023-08-07T10:01:57;2.78;;;1.80;;
49858;SDS011;35756;52.346;13.622;2023-08-07T10:04:24;7.20;;;2.17;;
49858;SDS011;35756;52.346;13.622;2023-08-07T10:06:50;3.10;;;1.90;;
49858;SDS011;35756;52.346;13.622;2023-08-07T10:09:16;2.42;;;1.70;;
49858;SDS011;35756;52.346;13.622;2023-08-07T10:11:41;1.90;;;1.58;;
49858;SDS011;35756;52.346;13.622;2023-08-07T10:14:08;3.30;;;1.50;;
49858;SDS011;35756;52.346;13.622;2023-08-07T10:16:33;1.58;;;1.30;;
49858;SDS011;35756;52.346;13.622;2023-08-07T10:19:04;2.55;;;1.50;;
49858;SDS011;35756;52.346;13.622;2023-08-07T10:21:29;2.17;;;1.45;;
49858;SDS011;35756;52.346;13.622;2023-08-07T10:23:55;2.97;;;1.77;;
49858;SDS011;35756;52.346;13.622;2023-08-07T10:26:21;1.45;;;1.30;;
49858;SDS011;35756;52.346;13.622;2023-08-07T10:28:47;2.80;;;1.90;;
49858;SDS011;35756;52.346;13.622;2023-08-07T10:31:14;4.25;;;1.42;;
49858;SDS011;35756;52.346;13.622;2023-08-07T10:33:40;2.45;;;1.60;;
49858;SDS011;35756;52.346;13.622;2023-08-07T10:36:09;2.85;;;1.88;;
49858;SDS011;35756;52.346;13.622;2023-08-07T10:38:35;6.35;;;1.98;;
49858;SDS011;35756;52.346;13.622;2023-08-07T10:41:13;2.78;;;1.50;;
49858;SDS011;35756;52.346;13.622;2023-08-07T10:43:42;3.38;;;1.90;;
49858;SDS011;35756;52.346;13.622;2023-08-07T10:46:12;2.15;;;1.38;;
49858;SDS011;35756;52.346;13.622;2023-08-07T10:51:06;4.45;;;1.80;;
49858;SDS011;35756;52.346;13.622;2023-08-07T10:55:58;5.72;;;1.60;;
49858;SDS011;35756;52.346;13.622;2023-08-07T10:58:29;2.10;;;1.60;;
49858;SDS011;35756;52.346;13.622;2023-08-07T11:03:44;1.65;;;1.23;;
49858;SDS011;35756;52.346;13.622;2023-08-07T11:06:10;1.80;;;1.33;;
49858;SDS011;35756;52.346;13.622;2023-08-07T11:08:36;3.60;;;1.65;;
49858;SDS011;35756;52.346;13.622;2023-08-07T11:11:05;2.60;;;1.55;;
49858;SDS011;35756;52.346;13.622;2023-08-07T11:13:31;1.60;;;1.20;;
49858;SDS011;35756;52.346;13.622;2023-08-07T11:15:56;2.17;;;1.48;;
49858;SDS011;35756;52.346;13.622;2023-08-07T11:18:22;2.13;;;1.67;;
49858;SDS011;35756;52.346;13.622;2023-08-07T11:20:47;1.27;;;1.13;;
49858;SDS011;35756;52.346;13.622;2023-08-07T11:23:13;2.03;;;1.50;;
49858;SDS011;35756;52.346;13.622;2023-08-07T11:25:38;3.42;;;1.67;;
49858;SDS011;35756;52.346;13.622;2023-08-07T11:28:03;1.70;;;1.13;;
49858;SDS011;35756;52.346;13.622;2023-08-07T11:30:29;2.75;;;1.60;;
49858;SDS011;35756;52.346;13.622;2023-08-07T11:32:54;1.88;;;1.50;;
49858;SDS011;35756;52.346;13.622;2023-08-07T11:35:19;2.30;;;1.50;;
49858;SDS011;35756;52.346;13.622;2023-08-07T11:37:45;1.75;;;1.35;;
49858;SDS011;35756;52.346;13.622;2023-08-07T11:40:12;2.03;;;1.50;;
49858;SDS011;35756;52.346;13.622;2023-08-07T11:42:37;3.88;;;1.60;;
49858;SDS011;35756;52.346;13.622;2023-08-07T11:45:03;3.47;;;1.73;;
49858;SDS011;35756;52.346;13.622;2023-08-07T11:47:29;2.60;;;1.38;;
49858;SDS011;35756;52.346;13.622;2023-08-07T11:49:54;2.08;;;1.42;;
49858;SDS011;35756;52.346;13.622;2023-08-07T11:52:20;2.25;;;1.33;;
49858;SDS011;35756;52.346;13.622;2023-08-07T11:54:46;2.05;;;1.50;;
49858;SDS011;35756;52.346;13.622;2023-08-07T11:57:16;3.03;;;1.63;;
49858;SDS011;35756;52.346;13.622;2023-08-07T11:59:42;2.63;;;1.52;;
49858;SDS011;35756;52.346;13.622;2023-08-07T12:02:12;2.10;;;1.63;;
49858;SDS011;35756;52.346;13.622;2023-08-07T12:04:37;3.20;;;1.90;;
49858;SDS011;35756;52.346;13.622;2023-08-07T12:07:03;2.33;;;1.58;;
49858;SDS011;35756;52.346;13.622;2023-08-07T12:09:28;1.27;;;1.17;;
49858;SDS011;35756;52.346;13.622;2023-08-07T12:11:55;2.33;;;1.30;;
49858;SDS011;35756;52.346;13.622;2023-08-07T12:14:22;2.53;;;1.60;;
49858;SDS011;35756;52.346;13.622;2023-08-07T12:16:47;1.70;;;1.55;;
49858;SDS011;35756;52.346;13.622;2023-08-07T12:19:13;1.98;;;1.45;;
49858;SDS011;35756;52.346;13.622;2023-08-07T12:21:39;9.02;;;1.75;;
49858;SDS011;35756;52.346;13.622;2023-08-07T12:24:07;2.90;;;1.77;;
49858;SDS011;35756;52.346;13.622;2023-08-07T12:26:32;3.92;;;1.88;;
49858;SDS011;35756;52.346;13.622;2023-08-07T12:28:58;3.40;;;1.80;;
49858;SDS011;35756;52.346;13.622;2023-08-07T12:31:23;3.60;;;1.98;;
49858;SDS011;35756;52.346;13.622;2023-08-07T12:33:48;2.40;;;1.65;;
49858;SDS011;35756;52.346;13.622;2023-08-07T12:36:14;3.00;;;1.35;;
49858;SDS011;35756;52.346;13.622;2023-08-07T12:38:39;1.83;;;1.35;;
49858;SDS011;35756;52.346;13.622;2023-08-07T12:41:05;2.13;;;1.50;;
49858;SDS011;35756;52.346;13.622;2023-08-07T12:43:30;2.20;;;1.40;;
49858;SDS011;35756;52.346;13.622;2023-08-07T12:45:55;2.17;;;1.40;;
49858;SDS011;35756;52.346;13.622;2023-08-07T12:48:21;3.03;;;1.70;;
49858;SDS011;35756;52.346;13.622;2023-08-07T12:50:46;1.58;;;1.20;;
49858;SDS011;35756;52.346;13.622;2023-08-07T12:53:11;1.30;;;1.00;;
49858;SDS011;35756;52.346;13.622;2023-08-07T12:55:37;2.45;;;1.50;;
49858;SDS011;35756;52.346;13.622;2023-08-07T12:58:02;3.08;;;1.38;;
49858;SDS011;35756;52.346;13.622;2023-08-07T13:00:28;2.17;;;1.08;;
49858;SDS011;35756;52.346;13.622;2023-08-07T13:02:53;2.22;;;1.20;;
49858;SDS011;35756;52.346;13.622;2023-08-07T13:05:20;2.35;;;1.70;;
49858;SDS011;35756;52.346;13.622;2023-08-07T13:07:46;1.70;;;1.17;;
49858;SDS011;35756;52.346;13.622;2023-08-07T13:10:12;1.27;;;1.10;;
49858;SDS011;35756;52.346;13.622;2023-08-07T13:12:39;1.65;;;0.82;;
49858;SDS011;35756;52.346;13.622;2023-08-07T13:15:05;1.23;;;0.85;;
49858;SDS011;35756;52.346;13.622;2023-08-07T13:17:33;1.60;;;0.93;;
49858;SDS011;35756;52.346;13.622;2023-08-07T13:19:58;1.38;;;1.27;;
49858;SDS011;35756;52.346;13.622;2023-08-07T13:22:24;2.65;;;1.20;;
49858;SDS011;35756;52.346;13.622;2023-08-07T13:24:50;3.42;;;1.63;;
49858;SDS011;35756;52.346;13.622;2023-08-07T13:27:15;2.97;;;1.20;;
49858;SDS011;35756;52.346;13.622;2023-08-07T13:29:40;1.17;;;0.95;;
49858;SDS011;35756;52.346;13.622;2023-08-07T13:32:06;2.05;;;1.20;;
49858;SDS011;35756;52.346;13.622;2023-08-07T13:34:35;2.13;;;1.27;;
49858;SDS011;35756;52.346;13.622;2023-08-07T13:37:00;1.58;;;1.08;;
49858;SDS011;35756;52.346;13.622;2023-08-07T13:39:26;3.03;;;1.48;;
49858;SDS011;35756;52.346;13.622;2023-08-07T13:41:51;3.10;;;1.77;;
49858;SDS011;35756;52.346;13.622;2023-08-07T13:44:16;4.55;;;1.35;;
49858;SDS011;35756;52.346;13.622;2023-08-07T13:46:42;2.80;;;1.33;;
49858;SDS011;35756;52.346;13.622;2023-08-07T13:49:09;2.08;;;1.38;;
49858;SDS011;35756;52.346;13.622;2023-08-07T13:51:34;3.65;;;1.20;;
49858;SDS011;35756;52.346;13.622;2023-08-07T13:53:59;5.18;;;1.52;;
49858;SDS011;35756;52.346;13.622;2023-08-07T13:56:25;5.03;;;1.25;;
49858;SDS011;35756;52.346;13.622;2023-08-07T13:58:50;3.05;;;1.40;;
49858;SDS011;35756;52.346;13.622;2023-08-07T14:01:15;2.88;;;1.30;;
49858;SDS011;35756;52.346;13.622;2023-08-07T14:03:41;1.30;;;1.20;;
49858;SDS011;35756;52.346;13.622;2023-08-07T14:06:06;2.05;;;1.30;;
49858;SDS011;35756;52.346;13.622;2023-08-07T14:08:31;1.73;;;1.25;;
49858;SDS011;35756;52.346;13.622;2023-08-07T14:10:57;2.08;;;1.20;;
49858;SDS011;35756;52.346;13.622;2023-08-07T14:13:23;2.15;;;1.30;;
49858;SDS011;35756;52.346;13.622;2023-08-07T14:15:48;4.32;;;1.40;;
49858;SDS011;35756;52.346;13.622;2023-08-07T14:18:14;5.30;;;1.70;;
49858;SDS011;35756;52.346;13.622;2023-08-07T14:20:40;3.42;;;1.55;;
49858;SDS011;35756;52.346;13.622;2023-08-07T14:23:06;2.35;;;1.50;;
49858;SDS011;35756;52.346;13.622;2023-08-07T14:25:31;5.95;;;1.80;;
49858;SDS011;35756;52.346;13.622;2023-08-07T14:27:56;3.15;;;1.40;;
49858;SDS011;35756;52.346;13.622;2023-08-07T14:30:21;4.85;;;1.40;;
49858;SDS011;35756;52.346;13.622;2023-08-07T14:32:47;7.93;;;1.55;;
49858;SDS011;35756;52.346;13.622;2023-08-07T14:35:12;5.13;;;1.40;;